Caprock, New Mexico
Current Conditions -  °F | °C
As of 3:43 PM on Tuesday 21 Oct 2014 (Local Time) from KROW Reporting Station
Broken Clouds Broken Clouds  
Wind Chill: 68°   Ceiling: 2800
Heat Index: 68°   Visibility: 10mi
Dew Point: 57°   Wind: 7mph
Humidity: 68%   Direction: 150°SSE
Pressure: 30.05"   Gusts: NA
Location:  33.39°N, 103.71°W
Report Text: KROW 212143Z 15006KT 10SM SCT022 BKN028 20/14 A3005 RMK AO2 T02000139
Loading
Personal Weather Stations






























Interactive Weather Map
Tropical Storm Tracking
New forecast layout! Learn more

10-Day Weather Forecast

Advertisements
Track Severe Weather on mobile